createdAt,value
2018-12-09T00:02:13.215Z,1.02
2018-12-09T00:04:45.456Z,1.42
2018-12-09T00:07:17.583Z,1.20
2018-12-09T00:09:47.741Z,1.10
2018-12-09T00:12:17.906Z,2.10
2018-12-09T00:14:48.184Z,0.98
2018-12-09T00:17:18.281Z,0.98
2018-12-09T00:19:48.492Z,1.05
2018-12-09T00:22:18.661Z,1.10
2018-12-09T00:24:48.912Z,1.30
2018-12-09T00:27:19.123Z,2.22
2018-12-09T00:29:49.279Z,1.00
2018-12-09T00:32:19.418Z,1.17
2018-12-09T00:34:49.637Z,1.10
2018-12-09T00:37:19.800Z,1.98
2018-12-09T00:39:50.040Z,4.10
2018-12-09T00:42:20.246Z,3.75
2018-12-09T00:44:50.593Z,1.10
2018-12-09T00:47:20.754Z,1.00
2018-12-09T00:49:50.962Z,2.12
2018-12-09T00:52:21.124Z,4.83
2018-12-09T00:54:51.329Z,1.67
2018-12-09T00:57:21.513Z,2.75
2018-12-09T00:59:51.833Z,2.92
2018-12-09T01:02:22.169Z,3.87
2018-12-09T01:04:52.376Z,3.60
2018-12-09T01:07:22.701Z,6.72
2018-12-09T01:09:52.881Z,2.77
2018-12-09T01:12:23.898Z,3.08
2018-12-09T01:14:54.119Z,2.83
2018-12-09T01:17:24.309Z,3.95
2018-12-09T01:19:54.549Z,3.83
2018-12-09T01:22:25.090Z,2.25
2018-12-09T01:24:55.345Z,4.70
2018-12-09T01:27:26.056Z,2.95
2018-12-09T01:29:56.418Z,4.35
2018-12-09T01:32:26.815Z,3.92
2018-12-09T01:34:57.048Z,5.12
2018-12-09T01:37:27.211Z,1.40
2018-12-09T01:39:57.479Z,2.05
2018-12-09T01:42:27.650Z,1.67
2018-12-09T01:44:58.225Z,1.57
2018-12-09T01:47:28.494Z,4.95
2018-12-09T01:49:58.711Z,2.35
2018-12-09T01:52:28.910Z,2.80
2018-12-09T01:54:59.162Z,2.45
2018-12-09T01:57:29.372Z,4.40
2018-12-09T01:59:59.536Z,3.37
2018-12-09T02:02:29.710Z,7.17
2018-12-09T02:04:59.904Z,4.75
2018-12-09T02:07:30.178Z,11.08
2018-12-09T02:10:00.431Z,12.23
2018-12-09T02:12:31.103Z,2.58
2018-12-09T02:15:01.262Z,3.67
2018-12-09T02:17:31.728Z,6.90
2018-12-09T02:20:01.861Z,3.83
2018-12-09T02:22:32.148Z,2.92
2018-12-09T02:25:02.379Z,6.92
2018-12-09T02:27:32.634Z,2.98
2018-12-09T02:30:02.824Z,8.00
2018-12-09T02:32:33.260Z,3.17
2018-12-09T02:35:03.394Z,3.17
2018-12-09T02:37:33.720Z,3.17
2018-12-09T02:40:04.245Z,8.50
2018-12-09T02:42:34.513Z,8.00
2018-12-09T02:45:05.200Z,2.70
2018-12-09T02:47:35.495Z,9.70
2018-12-09T02:50:05.896Z,10.08
2018-12-09T02:52:36.524Z,11.50
2018-12-09T02:55:07.019Z,8.65
2018-12-09T02:57:37.218Z,16.15
2018-12-09T03:00:08.059Z,7.30
2018-12-09T03:02:40.355Z,7.15
2018-12-09T03:05:10.601Z,10.72
2018-12-09T03:07:40.705Z,6.92
2018-12-09T03:10:10.978Z,5.00
2018-12-09T03:12:41.520Z,5.92
2018-12-09T03:15:11.965Z,4.60
2018-12-09T03:17:43.255Z,4.53
2018-12-09T03:20:14.212Z,4.83
2018-12-09T03:22:44.319Z,2.20
2018-12-09T03:25:14.569Z,2.50
2018-12-09T03:27:44.859Z,1.72
2018-12-09T03:33:31.976Z,2.25
2018-12-09T03:36:02.296Z,9.50
2018-12-09T03:38:32.681Z,4.85
2018-12-09T03:41:02.936Z,7.85
2018-12-09T03:43:33.400Z,10.15
2018-12-09T03:46:03.769Z,11.15
2018-12-09T03:48:34.225Z,6.00
2018-12-09T03:51:04.486Z,12.20
2018-12-09T03:53:34.999Z,16.85
2018-12-09T03:56:05.384Z,12.25
2018-12-09T03:58:35.657Z,8.50
2018-12-09T04:01:05.907Z,10.03
2018-12-09T04:03:36.275Z,15.08
2018-12-09T04:06:06.462Z,10.05
2018-12-09T04:08:36.592Z,17.20
2018-12-09T04:11:06.830Z,11.43
2018-12-09T04:13:36.945Z,13.78
2018-12-09T04:16:07.288Z,12.03
2018-12-09T04:18:39.517Z,13.75
2018-12-09T04:21:09.684Z,11.18
2018-12-09T04:23:39.918Z,12.98
2018-12-09T04:26:10.144Z,19.57
2018-12-09T04:28:40.367Z,13.78
2018-12-09T04:31:10.579Z,10.40
2018-12-09T04:33:40.726Z,17.15
2018-12-09T04:36:11.194Z,13.80
2018-12-09T04:38:41.335Z,6.62
2018-12-09T04:41:11.503Z,10.85
2018-12-09T04:43:48.403Z,9.08
2018-12-09T04:46:18.523Z,11.28
2018-12-09T04:48:48.610Z,7.80
2018-12-09T04:51:18.821Z,7.05
2018-12-09T04:53:49.025Z,10.93
2018-12-09T04:56:19.164Z,13.13
2018-12-09T04:59:11.129Z,12.30
2018-12-09T05:01:41.317Z,8.05
2018-12-09T05:04:11.476Z,9.50
2018-12-09T05:06:41.735Z,9.83
2018-12-09T05:09:11.894Z,9.88
2018-12-09T05:11:42.114Z,3.75
2018-12-09T05:14:12.268Z,5.15
2018-12-09T05:16:42.567Z,11.70
2018-12-09T05:19:12.777Z,12.50
2018-12-09T05:21:43.063Z,12.45
2018-12-09T05:24:13.278Z,5.00
2018-12-09T05:26:43.500Z,5.20
2018-12-09T05:29:13.677Z,4.75
2018-12-09T05:31:43.784Z,6.85
2018-12-09T05:34:14.309Z,11.00
2018-12-09T05:36:44.623Z,6.83
2018-12-09T05:39:14.758Z,9.63
2018-12-09T05:41:45.061Z,8.08
2018-12-09T05:44:15.299Z,8.45
2018-12-09T05:46:45.505Z,17.45
2018-12-09T05:49:15.642Z,11.97
2018-12-09T05:51:45.810Z,11.08
2018-12-09T05:54:15.946Z,14.70
2018-12-09T05:56:46.203Z,11.83
2018-12-09T05:59:16.343Z,13.43
2018-12-09T06:01:47.236Z,12.53
2018-12-09T06:04:17.378Z,10.65
2018-12-09T06:06:47.889Z,5.20
2018-12-09T06:09:18.168Z,7.78
2018-12-09T06:11:48.292Z,9.18
2018-12-09T06:14:18.547Z,10.35
2018-12-09T06:16:49.027Z,8.13
2018-12-09T06:19:19.199Z,16.55
2018-12-09T06:21:49.414Z,12.20
2018-12-09T06:24:19.632Z,10.35
2018-12-09T06:26:49.835Z,11.03
2018-12-09T06:29:20.007Z,8.80
2018-12-09T06:31:50.119Z,6.08
2018-12-09T06:34:20.283Z,7.78
2018-12-09T06:36:50.438Z,9.70
2018-12-09T06:39:20.638Z,8.15
2018-12-09T06:41:50.970Z,7.62
2018-12-09T06:44:21.185Z,11.53
2018-12-09T06:46:51.423Z,9.38
2018-12-09T06:49:21.855Z,4.90
2018-12-09T06:51:52.045Z,5.87
2018-12-09T06:54:22.286Z,7.62
2018-12-09T06:56:52.612Z,14.75
2018-12-09T06:59:22.788Z,9.98
2018-12-09T07:01:52.964Z,5.97
2018-12-09T07:04:23.158Z,4.15
2018-12-09T07:06:53.396Z,5.62
2018-12-09T07:09:23.495Z,6.67
2018-12-09T07:11:54.558Z,6.30
2018-12-09T07:14:24.720Z,2.72
2018-12-09T07:16:54.899Z,5.90
2018-12-09T07:19:25.185Z,6.17
2018-12-09T07:21:55.413Z,6.30
2018-12-09T07:24:25.633Z,9.75
2018-12-09T07:26:55.827Z,7.62
2018-12-09T07:29:25.997Z,3.52
2018-12-09T07:31:56.834Z,7.05
2018-12-09T07:34:26.979Z,12.40
2018-12-09T07:36:57.188Z,6.12
2018-12-09T07:39:27.422Z,5.97
2018-12-09T07:41:57.614Z,8.15
2018-12-09T07:44:28.078Z,6.42
2018-12-09T07:46:58.312Z,6.95
2018-12-09T07:49:28.436Z,7.00
2018-12-09T07:51:58.633Z,12.65
2018-12-09T07:54:28.767Z,7.22
2018-12-09T07:56:58.867Z,9.58
2018-12-09T07:59:29.005Z,10.60
2018-12-09T08:01:59.121Z,9.50
2018-12-09T08:04:29.278Z,13.32
2018-12-09T08:06:59.437Z,7.10
2018-12-09T08:09:29.554Z,8.40
2018-12-09T08:11:59.697Z,8.70
2018-12-09T08:14:29.916Z,7.25
2018-12-09T08:17:00.052Z,18.35
2018-12-09T08:19:30.505Z,8.63
2018-12-09T08:22:00.716Z,6.17
2018-12-09T08:24:30.825Z,5.75
2018-12-09T08:27:01.147Z,8.70
2018-12-09T08:29:31.463Z,7.62
2018-12-09T08:32:01.587Z,7.92
2018-12-09T08:34:31.743Z,11.55
2018-12-09T08:37:01.912Z,7.22
2018-12-09T08:39:32.001Z,23.22
2018-12-09T08:42:02.159Z,13.28
2018-12-09T08:44:32.402Z,14.20
2018-12-09T08:47:02.516Z,5.42
2018-12-09T08:49:32.729Z,13.05
2018-12-09T08:52:03.005Z,4.65
2018-12-09T08:54:33.148Z,9.30
2018-12-09T08:57:03.328Z,18.92
2018-12-09T08:59:33.453Z,8.75
2018-12-09T09:02:03.803Z,10.60
2018-12-09T09:04:34.026Z,12.53
2018-12-09T09:07:04.242Z,8.63
2018-12-09T09:09:34.375Z,16.85
2018-12-09T09:12:04.536Z,9.08
2018-12-09T09:14:34.722Z,11.30
2018-12-09T09:17:04.900Z,17.17
2018-12-09T09:19:35.043Z,10.80
2018-12-09T09:22:05.372Z,16.30
2018-12-09T09:24:35.537Z,13.88
2018-12-09T09:27:05.695Z,10.28
2018-12-09T09:29:35.787Z,10.50
2018-12-09T09:32:06.019Z,8.88
2018-12-09T09:34:36.803Z,16.65
2018-12-09T09:37:07.115Z,7.72
2018-12-09T09:39:37.305Z,9.50
2018-12-09T09:42:08.601Z,15.32
2018-12-09T09:44:38.823Z,7.50
2018-12-09T09:47:08.997Z,6.83
2018-12-09T09:49:39.300Z,11.80
2018-12-09T09:52:09.782Z,10.15
2018-12-09T09:54:40.083Z,7.15
2018-12-09T09:57:10.407Z,10.32
2018-12-09T09:59:40.724Z,10.08
2018-12-09T10:02:10.978Z,12.70
2018-12-09T10:04:41.226Z,18.48
2018-12-09T10:07:11.485Z,13.43
2018-12-09T10:09:41.646Z,16.55
2018-12-09T10:12:17.698Z,13.15
2018-12-09T10:14:47.893Z,11.25
2018-12-09T10:17:17.987Z,11.03
2018-12-09T10:19:48.176Z,11.25
2018-12-09T10:22:18.274Z,15.15
2018-12-09T10:24:48.498Z,14.87
2018-12-09T10:27:18.797Z,12.75
2018-12-09T10:29:49.074Z,6.55
2018-12-09T10:32:19.347Z,10.32
2018-12-09T10:34:49.570Z,9.20
2018-12-09T10:37:19.882Z,6.92
2018-12-09T10:39:50.095Z,11.08
2018-12-09T10:42:20.380Z,9.95
2018-12-09T10:44:50.585Z,4.70
2018-12-09T10:47:20.771Z,9.98
2018-12-09T10:49:51.091Z,7.17
2018-12-09T10:52:21.169Z,10.58
2018-12-09T10:54:51.571Z,12.05
2018-12-09T10:57:22.057Z,7.65
2018-12-09T10:59:52.227Z,11.70
2018-12-09T11:02:22.506Z,8.23
2018-12-09T11:04:53.622Z,11.95
2018-12-09T11:07:23.838Z,8.55
2018-12-09T11:09:55.049Z,7.08
2018-12-09T11:12:25.183Z,9.78
2018-12-09T11:14:55.369Z,6.65
2018-12-09T11:17:25.487Z,6.67
2018-12-09T11:19:55.671Z,11.93
2018-12-09T11:22:25.877Z,8.48
2018-12-09T11:24:56.098Z,7.50
2018-12-09T11:27:26.260Z,6.00
2018-12-09T11:29:56.412Z,9.18
2018-12-09T11:32:26.553Z,8.83
2018-12-09T11:34:56.723Z,7.30
2018-12-09T11:37:26.914Z,4.05
2018-12-09T11:39:57.081Z,9.58
2018-12-09T11:42:27.370Z,14.35
2018-12-09T11:44:57.520Z,6.78
2018-12-09T11:47:27.884Z,4.05
2018-12-09T11:49:58.113Z,4.22
2018-12-09T11:52:29.290Z,6.72
2018-12-09T11:54:59.475Z,3.80
2018-12-09T11:57:29.649Z,10.78
2018-12-09T11:59:59.905Z,13.58
2018-12-09T12:02:31.345Z,5.30
2018-12-09T12:05:01.769Z,11.08
2018-12-09T12:07:31.866Z,8.88
2018-12-09T12:10:03.232Z,11.28
2018-12-09T12:12:34.728Z,7.12
2018-12-09T12:15:07.086Z,4.15
2018-12-09T12:17:37.518Z,11.70
2018-12-09T12:20:09.832Z,4.92
2018-12-09T12:22:41.080Z,8.38
2018-12-09T12:25:12.622Z,5.87
2018-12-09T12:27:43.090Z,13.90
2018-12-09T12:30:13.597Z,9.60
2018-12-09T12:32:44.909Z,3.37
2018-12-09T12:35:15.067Z,4.37
2018-12-09T12:37:45.303Z,6.25
2018-12-09T12:40:15.561Z,7.50
2018-12-09T12:42:45.817Z,8.15
2018-12-09T12:45:15.945Z,7.37
2018-12-09T12:47:47.245Z,6.17
2018-12-09T12:50:17.456Z,6.55
2018-12-09T12:52:49.540Z,6.40
2018-12-09T12:55:19.747Z,4.55
2018-12-09T12:57:49.940Z,4.17
2018-12-09T13:00:20.071Z,3.00
2018-12-09T13:02:50.300Z,5.45
2018-12-09T13:05:20.453Z,5.17
2018-12-09T13:07:50.580Z,9.05
2018-12-09T13:10:20.762Z,4.85
2018-12-09T13:12:50.954Z,3.72
2018-12-09T13:15:21.092Z,3.65
2018-12-09T13:17:51.191Z,3.15
2018-12-09T13:20:21.428Z,4.03
2018-12-09T13:22:51.520Z,3.37
2018-12-09T13:25:21.865Z,2.00
2018-12-09T13:27:52.087Z,3.58
2018-12-09T13:30:22.363Z,4.00
2018-12-09T13:32:52.480Z,6.50
2018-12-09T13:35:23.774Z,6.50
2018-12-09T13:37:53.969Z,1.60
2018-12-09T13:40:24.076Z,3.65
2018-12-09T13:42:54.564Z,2.10
2018-12-09T13:45:24.651Z,2.37
2018-12-09T13:47:55.637Z,7.00
2018-12-09T13:50:25.924Z,2.55
2018-12-09T13:52:56.231Z,2.40
2018-12-09T13:55:26.426Z,2.35
2018-12-09T13:57:56.585Z,1.87
2018-12-09T14:00:26.686Z,1.55
2018-12-09T14:02:56.812Z,1.87
2018-12-09T14:05:27.128Z,2.75
2018-12-09T14:07:57.233Z,2.75
2018-12-09T14:10:27.401Z,1.47
2018-12-09T14:12:57.615Z,3.58
2018-12-09T14:15:27.753Z,3.45
2018-12-09T14:17:57.937Z,2.85
2018-12-09T14:20:28.069Z,2.10
2018-12-09T14:22:58.257Z,3.25
2018-12-09T14:25:28.445Z,3.10
2018-12-09T14:27:58.561Z,2.27
2018-12-09T14:30:28.777Z,2.42
2018-12-09T14:32:58.891Z,1.98
2018-12-09T14:35:29.188Z,4.20
2018-12-09T14:37:59.357Z,5.10
2018-12-09T14:40:29.563Z,2.75
2018-12-09T14:42:59.692Z,3.45
2018-12-09T14:45:29.816Z,2.72
2018-12-09T14:47:59.949Z,2.27
2018-12-09T14:50:30.074Z,2.98
2018-12-09T14:53:00.177Z,4.15
2018-12-09T14:55:30.300Z,2.55
2018-12-09T14:58:00.512Z,3.98
2018-12-09T15:00:30.612Z,4.42
2018-12-09T15:03:01.987Z,1.72
2018-12-09T15:05:32.197Z,2.77
2018-12-09T15:08:02.382Z,3.67
2018-12-09T15:10:32.501Z,2.98
2018-12-09T15:13:02.741Z,5.15
2018-12-09T15:15:32.882Z,2.95
2018-12-09T15:18:02.961Z,2.10
2018-12-09T15:20:33.222Z,1.82
2018-12-09T15:23:03.380Z,1.52
2018-12-09T15:25:33.662Z,2.58
2018-12-09T15:28:03.939Z,2.00
2018-12-09T15:30:34.245Z,2.12
2018-12-09T15:33:04.557Z,3.90
2018-12-09T15:35:34.769Z,2.47
2018-12-09T15:38:05.150Z,2.75
2018-12-09T15:40:35.323Z,2.55
2018-12-09T15:43:05.493Z,1.47
2018-12-09T15:45:35.794Z,5.30
2018-12-09T15:48:06.907Z,2.15
2018-12-09T15:50:37.441Z,3.22
2018-12-09T15:53:07.579Z,2.15
2018-12-09T15:55:37.946Z,1.80
2018-12-09T15:58:08.085Z,1.35
2018-12-09T16:03:24.099Z,1.80
2018-12-09T16:05:54.253Z,1.70
2018-12-09T16:08:24.373Z,1.90
2018-12-09T16:10:54.487Z,1.85
2018-12-09T16:13:24.664Z,1.75
2018-12-09T16:15:54.817Z,4.25
2018-12-09T16:18:24.985Z,2.65
2018-12-09T16:20:55.467Z,1.32
2018-12-09T16:23:25.613Z,1.70
2018-12-09T16:25:55.767Z,2.92
2018-12-09T16:28:25.927Z,1.65
2018-12-09T16:30:56.336Z,2.60
2018-12-09T16:33:26.451Z,3.58
2018-12-09T16:35:56.582Z,2.35
2018-12-09T16:38:26.745Z,2.08
2018-12-09T16:40:56.879Z,3.15
2018-12-09T16:43:26.992Z,2.58
2018-12-09T16:45:57.139Z,1.60
2018-12-09T16:48:27.322Z,2.10
2018-12-09T16:50:57.462Z,3.17
2018-12-09T16:53:27.659Z,4.92
2018-12-09T16:55:57.825Z,4.33
2018-12-09T16:58:28.062Z,3.70
2018-12-09T17:00:58.125Z,2.20
2018-12-09T17:03:28.602Z,2.30
2018-12-09T17:05:59.085Z,1.60
2018-12-09T17:08:29.418Z,4.40
2018-12-09T17:10:59.724Z,5.72
2018-12-09T17:13:29.997Z,2.87
2018-12-09T17:16:00.341Z,3.40
2018-12-09T17:18:30.710Z,1.60
2018-12-09T17:21:00.990Z,4.95
2018-12-09T17:23:37.892Z,3.52
2018-12-09T17:26:08.077Z,7.28
2018-12-09T17:28:38.253Z,3.60
2018-12-09T17:31:09.489Z,4.45
2018-12-09T17:33:39.705Z,2.65
2018-12-09T17:36:10.007Z,2.95
2018-12-09T17:38:40.118Z,4.22
2018-12-09T17:41:10.246Z,10.40
2018-12-09T17:43:40.398Z,6.03
2018-12-09T17:46:10.798Z,1.80
2018-12-09T17:48:41.166Z,2.77
2018-12-09T17:51:11.353Z,2.92
2018-12-09T17:53:41.518Z,4.55
2018-12-09T17:56:11.673Z,4.45
2018-12-09T17:58:42.055Z,2.08
2018-12-09T18:01:17.804Z,13.70
2018-12-09T18:03:47.981Z,9.83
2018-12-09T18:06:18.211Z,3.00
2018-12-09T18:08:48.400Z,2.50
2018-12-09T18:11:18.560Z,2.95
2018-12-09T18:13:48.691Z,2.62
2018-12-09T18:16:18.818Z,4.53
2018-12-09T18:18:48.917Z,6.95
2018-12-09T18:21:19.173Z,4.17
2018-12-09T18:23:49.272Z,3.17
2018-12-09T18:26:19.591Z,3.47
2018-12-09T18:28:49.908Z,3.47
2018-12-09T18:31:20.228Z,2.20
2018-12-09T18:33:50.639Z,6.90
2018-12-09T18:36:20.955Z,4.10
2018-12-09T18:38:51.346Z,2.95
2018-12-09T18:41:21.575Z,2.80
2018-12-09T18:43:51.800Z,4.25
2018-12-09T18:46:22.121Z,2.75
2018-12-09T18:48:53.624Z,6.97
2018-12-09T18:51:23.905Z,5.58
2018-12-09T18:53:54.160Z,2.33
2018-12-09T18:56:24.379Z,3.10
2018-12-09T18:58:54.614Z,9.23
2018-12-09T19:01:24.737Z,6.28
2018-12-09T19:03:54.885Z,2.72
2018-12-09T19:06:25.255Z,1.82
2018-12-09T19:08:55.738Z,4.17
2018-12-09T19:11:26.481Z,2.50
2018-12-09T19:13:56.639Z,4.33
2018-12-09T19:16:26.808Z,2.62
2018-12-09T19:18:56.940Z,2.25
2018-12-09T19:21:27.125Z,6.17
2018-12-09T19:23:57.393Z,3.58
2018-12-09T19:26:28.320Z,3.55
2018-12-09T19:28:58.594Z,2.95
2018-12-09T19:31:28.783Z,2.15
2018-12-09T19:33:59.057Z,1.62
2018-12-09T19:36:29.221Z,3.70
2018-12-09T19:38:59.431Z,5.70
2018-12-09T19:41:29.637Z,4.42
2018-12-09T19:44:00.036Z,2.52
2018-12-09T19:46:30.129Z,4.60
2018-12-09T19:49:00.305Z,3.50
2018-12-09T19:51:30.589Z,2.25
2018-12-09T19:54:00.852Z,1.90
2018-12-09T19:56:31.194Z,2.80
2018-12-09T19:59:02.412Z,10.70
2018-12-09T20:01:32.665Z,2.92
2018-12-09T20:04:02.879Z,4.42
2018-12-09T20:06:33.047Z,4.75
2018-12-09T20:09:03.483Z,8.68
2018-12-09T20:11:35.649Z,2.80
2018-12-09T20:14:05.769Z,3.17
2018-12-09T20:16:35.988Z,2.87
2018-12-09T20:19:06.140Z,2.40
2018-12-09T20:21:36.277Z,3.40
2018-12-09T20:24:06.445Z,2.50
2018-12-09T20:26:36.617Z,2.72
2018-12-09T20:29:06.752Z,2.60
2018-12-09T20:31:36.877Z,2.60
2018-12-09T20:34:07.125Z,3.02
2018-12-09T20:36:37.341Z,4.92
2018-12-09T20:39:09.073Z,2.62
2018-12-09T20:41:39.358Z,4.12
2018-12-09T20:44:09.500Z,3.90
2018-12-09T20:46:39.601Z,4.85
2018-12-09T20:49:09.761Z,2.60
2018-12-09T20:51:39.964Z,3.45
2018-12-09T20:54:10.157Z,5.85
2018-12-09T20:56:40.331Z,3.67
2018-12-09T20:59:10.504Z,2.90
2018-12-09T21:01:40.675Z,3.12
2018-12-09T21:04:10.762Z,4.65
2018-12-09T21:06:40.932Z,8.95
2018-12-09T21:09:11.039Z,2.90
2018-12-09T21:11:41.300Z,3.40
2018-12-09T21:14:11.401Z,3.40
2018-12-09T21:16:41.565Z,3.17
2018-12-09T21:19:11.753Z,3.87
2018-12-09T21:21:41.994Z,9.75
2018-12-09T21:24:12.174Z,4.33
2018-12-09T21:26:42.338Z,2.50
2018-12-09T21:29:12.534Z,4.42
2018-12-09T21:31:42.703Z,8.78
2018-12-09T21:34:12.885Z,2.90
2018-12-09T21:36:43.038Z,5.67
2018-12-09T21:39:13.227Z,5.60
2018-12-09T21:41:43.412Z,8.28
2018-12-09T21:44:13.587Z,4.53
2018-12-09T21:46:43.795Z,4.25
2018-12-09T21:49:14.443Z,10.20
2018-12-09T21:51:44.610Z,4.72
2018-12-09T21:54:14.785Z,2.47
2018-12-09T21:56:44.922Z,6.58
2018-12-09T21:59:15.125Z,5.80
2018-12-09T22:01:45.325Z,4.75
2018-12-09T22:04:15.643Z,3.70
2018-12-09T22:06:45.977Z,6.50
2018-12-09T22:09:16.181Z,4.75
2018-12-09T22:11:46.447Z,6.40
2018-12-09T22:14:16.982Z,4.62
2018-12-09T22:16:47.141Z,5.30
2018-12-09T22:19:17.323Z,4.67
2018-12-09T22:21:47.516Z,7.17
2018-12-09T22:24:17.797Z,6.35
2018-12-09T22:26:47.984Z,5.15
2018-12-09T22:29:18.110Z,3.10
2018-12-09T22:31:48.268Z,3.37
2018-12-09T22:34:18.345Z,3.33
2018-12-09T22:36:48.498Z,4.15
2018-12-09T22:39:18.575Z,10.13
2018-12-09T22:41:48.765Z,9.80
2018-12-09T22:44:18.884Z,3.10
2018-12-09T22:46:49.028Z,6.75
2018-12-09T22:49:20.227Z,3.33
2018-12-09T22:51:50.356Z,2.62
2018-12-09T22:54:20.590Z,3.00
2018-12-09T22:56:50.743Z,3.83
2018-12-09T22:59:20.829Z,8.50
2018-12-09T23:01:56.411Z,5.17
2018-12-09T23:04:26.565Z,3.47
2018-12-09T23:09:52.648Z,3.85
2018-12-09T23:12:22.807Z,2.42
2018-12-09T23:14:53.081Z,2.83
2018-12-09T23:17:23.228Z,3.33
2018-12-09T23:19:53.391Z,6.58
2018-12-09T23:22:23.505Z,7.65
2018-12-09T23:24:53.654Z,3.10
2018-12-09T23:27:23.757Z,2.58
2018-12-09T23:29:53.864Z,4.28
2018-12-09T23:32:24.008Z,2.58
2018-12-09T23:34:54.099Z,2.77
2018-12-09T23:37:24.240Z,3.65
2018-12-09T23:39:54.362Z,3.15
2018-12-09T23:42:24.630Z,6.05
2018-12-09T23:44:54.793Z,3.15
2018-12-09T23:47:26.001Z,2.83
2018-12-09T23:49:56.226Z,3.52
2018-12-09T23:52:26.323Z,2.70
2018-12-09T23:54:56.495Z,3.87
2018-12-09T23:57:28.620Z,3.92
2018-12-09T23:59:58.788Z,3.40
